createdAt,value
2022-11-30T00:01:40.544Z,7.15
2022-11-30T00:04:44.950Z,7.14
2022-11-30T00:07:48.007Z,7.12
2022-11-30T00:10:50.651Z,7.11
2022-11-30T00:13:53.705Z,7.16
2022-11-30T00:16:56.362Z,7.16
2022-11-30T00:20:00.409Z,7.09
2022-11-30T00:23:03.007Z,7.11
2022-11-30T00:26:07.767Z,7.13
2022-11-30T00:29:10.423Z,7.18
2022-11-30T00:32:13.028Z,7.09
2022-11-30T00:35:17.833Z,6.99
2022-11-30T00:38:20.462Z,7.10
2022-11-30T00:41:23.193Z,7.15
2022-11-30T00:44:25.825Z,7.16
2022-11-30T00:47:28.421Z,7.10
2022-11-30T00:50:32.401Z,7.12
2022-11-30T00:53:35.017Z,6.98
2022-11-30T00:56:37.643Z,7.16
2022-11-30T00:59:40.272Z,7.05
2022-11-30T01:02:43.098Z,7.09
2022-11-30T01:05:47.218Z,7.13
2022-11-30T01:08:49.805Z,7.14
2022-11-30T01:11:52.445Z,7.18
2022-11-30T01:14:55.150Z,7.12
2022-11-30T01:18:00.025Z,7.11
2022-11-30T01:21:06.964Z,7.10
2022-11-30T01:24:10.573Z,7.10
2022-11-30T01:27:13.189Z,7.14
2022-11-30T01:30:15.956Z,6.99
2022-11-30T01:33:18.634Z,6.91
2022-11-30T01:36:23.892Z,6.96
2022-11-30T01:39:26.660Z,7.07
2022-11-30T01:42:29.440Z,7.12
2022-11-30T01:45:32.040Z,7.15
2022-11-30T01:48:34.689Z,7.15
2022-11-30T01:51:42.303Z,7.20
2022-11-30T01:54:49.878Z,7.15
2022-11-30T01:57:57.654Z,7.13
2022-11-30T02:01:00.938Z,7.10
2022-11-30T02:04:09.172Z,7.08
2022-11-30T02:07:13.738Z,7.09
2022-11-30T02:10:18.787Z,7.18
2022-11-30T02:13:45.723Z,7.26
2022-11-30T02:16:57.628Z,7.18
2022-11-30T02:20:30.145Z,6.95
2022-11-30T02:23:50.409Z,7.09
2022-11-30T02:27:05.833Z,7.12
2022-11-30T02:30:12.876Z,7.12
2022-11-30T02:33:19.182Z,7.12
2022-11-30T02:36:23.003Z,7.05
2022-11-30T02:39:25.604Z,7.10
2022-11-30T02:42:28.297Z,7.06
2022-11-30T02:45:37.027Z,6.98
2022-11-30T02:48:45.043Z,6.99
2022-11-30T02:51:49.760Z,7.12
2022-11-30T02:54:52.979Z,7.04
2022-11-30T02:57:55.643Z,7.09
2022-11-30T03:00:59.680Z,6.87
2022-11-30T03:04:02.345Z,6.94
2022-11-30T03:07:05.003Z,6.98
2022-11-30T03:10:09.380Z,7.09
2022-11-30T03:13:11.987Z,7.12
2022-11-30T03:16:15.999Z,7.15
2022-11-30T03:19:18.781Z,6.98
2022-11-30T03:22:21.572Z,7.02
2022-11-30T03:25:24.195Z,7.10
2022-11-30T03:28:26.877Z,7.11
2022-11-30T03:31:31.025Z,7.05
2022-11-30T03:34:33.786Z,7.11
2022-11-30T03:37:36.400Z,7.06
2022-11-30T03:40:39.328Z,7.17
2022-11-30T03:43:42.100Z,7.20
2022-11-30T03:46:46.233Z,7.18
2022-11-30T03:49:48.882Z,7.15
2022-11-30T03:52:51.498Z,7.12
2022-11-30T03:55:55.809Z,7.07
2022-11-30T03:58:58.560Z,7.05
2022-11-30T04:02:02.639Z,7.13
2022-11-30T04:05:05.638Z,7.09
2022-11-30T04:08:08.327Z,7.11
2022-11-30T04:11:11.480Z,7.14
2022-11-30T04:14:14.089Z,7.09
2022-11-30T04:17:18.035Z,7.09
2022-11-30T04:20:20.677Z,7.11
2022-11-30T04:23:24.253Z,7.18
2022-11-30T04:26:26.872Z,6.95
2022-11-30T04:29:29.452Z,7.14
2022-11-30T04:32:33.431Z,7.17
2022-11-30T04:35:41.712Z,7.15
2022-11-30T04:38:44.313Z,7.12
2022-11-30T04:41:46.929Z,7.10
2022-11-30T04:44:49.615Z,7.10
2022-11-30T04:47:53.585Z,7.12
2022-11-30T04:51:01.791Z,7.16
2022-11-30T04:54:04.606Z,7.11
2022-11-30T04:57:07.444Z,6.95
2022-11-30T05:00:11.917Z,7.09
2022-11-30T05:03:15.962Z,7.18
2022-11-30T05:06:18.738Z,7.20
2022-11-30T05:09:21.393Z,7.10
2022-11-30T05:12:24.019Z,7.16
2022-11-30T05:15:26.778Z,7.13
2022-11-30T05:18:31.618Z,7.11
2022-11-30T05:21:34.275Z,7.18
2022-11-30T05:24:36.981Z,7.17
2022-11-30T05:27:39.648Z,7.13
2022-11-30T05:30:43.613Z,7.20
2022-11-30T05:33:51.289Z,7.24
2022-11-30T05:36:53.902Z,7.15
2022-11-30T05:39:56.510Z,7.15
2022-11-30T05:43:00.101Z,7.18
2022-11-30T05:46:03.964Z,7.20
2022-11-30T05:49:08.227Z,7.17
2022-11-30T05:52:10.878Z,7.16
2022-11-30T05:55:13.551Z,7.03
2022-11-30T05:58:16.200Z,7.08
2022-11-30T06:01:20.866Z,7.17
2022-11-30T06:04:24.795Z,7.14
2022-11-30T06:07:27.491Z,7.09
2022-11-30T06:10:30.169Z,7.13
2022-11-30T06:13:32.868Z,7.13
2022-11-30T06:16:35.503Z,7.09
2022-11-30T06:19:39.473Z,7.15
2022-11-30T06:22:45.328Z,7.04
2022-11-30T06:25:47.927Z,7.10
2022-11-30T06:28:50.556Z,7.15
2022-11-30T06:31:53.227Z,7.15
2022-11-30T06:34:57.187Z,7.18
2022-11-30T06:38:00.770Z,7.15
2022-11-30T06:41:05.884Z,7.15
2022-11-30T06:44:09.519Z,7.14
2022-11-30T06:47:12.292Z,7.12
2022-11-30T06:50:16.418Z,6.93
2022-11-30T06:53:19.008Z,7.09
2022-11-30T06:56:22.153Z,7.06
2022-11-30T06:59:25.091Z,7.08
2022-11-30T07:02:27.728Z,7.09
2022-11-30T07:05:35.709Z,7.08
2022-11-30T07:08:38.610Z,7.05
2022-11-30T07:11:41.376Z,7.07
2022-11-30T07:14:44.009Z,7.05
2022-11-30T07:17:46.640Z,7.13
2022-11-30T07:20:50.683Z,7.14
2022-11-30T07:24:11.046Z,7.15
2022-11-30T07:27:14.054Z,7.07
2022-11-30T07:30:17.087Z,7.16
2022-11-30T07:33:19.690Z,7.15
2022-11-30T07:36:25.800Z,7.13
2022-11-30T07:39:28.406Z,7.11
2022-11-30T07:42:30.999Z,7.12
2022-11-30T07:45:33.678Z,7.11
2022-11-30T07:48:36.355Z,7.10
2022-11-30T07:51:40.484Z,7.02
2022-11-30T07:54:43.077Z,7.06
2022-11-30T07:57:45.735Z,6.99
2022-11-30T08:00:48.379Z,6.83
2022-11-30T08:03:51.870Z,7.01
2022-11-30T08:06:55.959Z,6.92
2022-11-30T08:09:58.561Z,7.04
2022-11-30T08:13:01.183Z,6.97
2022-11-30T08:16:04.756Z,6.88
2022-11-30T08:19:07.554Z,7.08
2022-11-30T08:22:11.626Z,7.05
2022-11-30T08:25:14.280Z,7.08
2022-11-30T08:28:16.905Z,7.09
2022-11-30T08:31:21.375Z,7.16
2022-11-30T08:34:24.073Z,7.15
2022-11-30T08:37:28.098Z,7.15
2022-11-30T08:40:31.368Z,7.14
2022-11-30T08:43:34.344Z,7.03
2022-11-30T08:46:53.417Z,7.12
2022-11-30T08:49:56.188Z,7.13
2022-11-30T08:53:06.126Z,6.95
2022-11-30T08:56:12.870Z,7.05
2022-11-30T08:59:15.491Z,7.09
2022-11-30T09:02:19.919Z,7.08
2022-11-30T09:05:22.712Z,7.00
2022-11-30T09:08:26.672Z,7.13
2022-11-30T09:11:31.650Z,7.15
2022-11-30T09:14:34.764Z,7.16
2022-11-30T09:17:37.720Z,7.00
2022-11-30T09:20:40.340Z,6.86
2022-11-30T09:23:45.934Z,7.12
2022-11-30T09:26:48.718Z,7.16
2022-11-30T09:29:51.392Z,7.13
2022-11-30T09:32:54.174Z,7.13
2022-11-30T09:35:58.074Z,7.14
2022-11-30T09:39:02.169Z,7.18
2022-11-30T09:42:22.416Z,7.21
2022-11-30T09:45:31.315Z,7.15
2022-11-30T09:48:52.736Z,7.20
2022-11-30T09:51:59.453Z,7.18
2022-11-30T09:55:09.129Z,7.20
2022-11-30T09:58:22.873Z,7.24
2022-11-30T10:01:29.331Z,7.17
2022-11-30T10:04:34.596Z,7.05
2022-11-30T10:07:53.715Z,7.20
2022-11-30T10:11:14.023Z,7.19
2022-11-30T10:14:45.821Z,7.19
2022-11-30T10:17:56.580Z,7.22
2022-11-30T10:21:12.294Z,7.24
2022-11-30T10:24:33.428Z,7.20
2022-11-30T10:27:49.849Z,7.24
2022-11-30T10:30:52.503Z,6.93
2022-11-30T10:34:01.400Z,7.15
2022-11-30T10:37:12.140Z,7.14
2022-11-30T10:40:19.118Z,7.14
2022-11-30T10:43:28.936Z,7.16
2022-11-30T10:46:35.111Z,7.14
2022-11-30T10:49:40.740Z,7.16
2022-11-30T10:52:47.811Z,7.17
2022-11-30T10:55:58.665Z,7.18
2022-11-30T10:59:05.875Z,7.23
2022-11-30T11:02:38.971Z,7.21
2022-11-30T11:05:41.654Z,7.29
2022-11-30T11:08:46.844Z,7.29
2022-11-30T11:11:54.797Z,7.32
2022-11-30T11:15:10.784Z,7.24
2022-11-30T11:18:24.241Z,7.22
2022-11-30T11:21:26.896Z,7.19
2022-11-30T11:24:29.760Z,7.13
2022-11-30T11:27:37.464Z,7.21
2022-11-30T11:30:44.045Z,7.17
2022-11-30T11:33:55.837Z,7.14
2022-11-30T11:37:06.930Z,7.14
2022-11-30T11:40:16.944Z,7.17
2022-11-30T11:43:19.900Z,7.19
2022-11-30T11:46:23.986Z,7.19
2022-11-30T11:49:29.290Z,7.27
2022-11-30T11:52:31.940Z,7.21
2022-11-30T11:55:35.896Z,7.19
2022-11-30T11:58:44.611Z,7.28
2022-11-30T12:01:56.906Z,7.00
2022-11-30T12:05:04.793Z,7.20
2022-11-30T12:08:14.405Z,7.26
2022-11-30T12:11:20.027Z,7.24
2022-11-30T12:14:22.641Z,7.17
2022-11-30T12:17:39.325Z,7.25
2022-11-30T12:20:54.177Z,7.32
2022-11-30T12:24:14.847Z,7.27
2022-11-30T12:27:26.237Z,7.25
2022-11-30T12:30:33.383Z,7.10
2022-11-30T12:33:55.933Z,7.21
2022-11-30T12:37:07.952Z,7.14
2022-11-30T12:40:26.343Z,7.08
2022-11-30T12:43:40.304Z,7.07
2022-11-30T12:46:49.655Z,7.08
2022-11-30T12:50:08.385Z,7.15
2022-11-30T12:53:21.557Z,7.19
2022-11-30T12:56:40.198Z,7.21
2022-11-30T12:59:50.450Z,7.11
2022-11-30T13:03:15.920Z,7.08
2022-11-30T13:06:23.963Z,7.12
2022-11-30T13:09:34.111Z,7.17
2022-11-30T13:12:39.518Z,7.13
2022-11-30T13:15:42.716Z,7.25
2022-11-30T13:18:46.115Z,7.18
2022-11-30T13:21:55.072Z,7.23
2022-11-30T13:25:03.839Z,7.22
2022-11-30T13:28:17.277Z,7.19
2022-11-30T13:31:24.124Z,7.24
2022-11-30T13:34:28.839Z,7.13
2022-11-30T13:37:33.131Z,7.14
2022-11-30T13:40:35.801Z,7.15
2022-11-30T13:43:44.836Z,7.16
2022-11-30T13:46:51.096Z,7.04
2022-11-30T13:49:57.054Z,6.98
2022-11-30T13:53:19.262Z,7.03
2022-11-30T13:56:36.074Z,7.05
2022-11-30T13:59:46.552Z,7.06
2022-11-30T14:02:54.775Z,7.06
2022-11-30T14:05:58.246Z,7.08
2022-11-30T14:09:02.253Z,7.05
2022-11-30T14:12:44.977Z,7.11
2022-11-30T14:15:57.922Z,7.09
2022-11-30T14:19:01.735Z,7.12
2022-11-30T14:22:05.109Z,7.05
2022-11-30T14:25:14.148Z,7.11
2022-11-30T14:28:20.110Z,7.10
2022-11-30T14:31:25.882Z,7.02
2022-11-30T14:34:33.766Z,7.03
2022-11-30T14:37:44.159Z,7.03
2022-11-30T14:40:52.698Z,7.05
2022-11-30T14:44:03.517Z,7.03
2022-11-30T14:47:23.715Z,7.08
2022-11-30T14:50:27.643Z,7.04
2022-11-30T14:53:37.393Z,7.05
2022-11-30T14:56:46.758Z,7.04
2022-11-30T14:59:53.092Z,6.91
2022-11-30T15:02:56.119Z,6.99
2022-11-30T15:06:01.009Z,6.97
2022-11-30T15:09:04.271Z,6.98
2022-11-30T15:12:08.523Z,6.98
2022-11-30T15:15:19.731Z,7.00
2022-11-30T15:18:24.101Z,7.02
2022-11-30T15:21:29.072Z,6.99
2022-11-30T15:24:31.757Z,6.96
2022-11-30T15:27:35.786Z,6.88
2022-11-30T15:30:42.228Z,6.88
2022-11-30T15:33:47.151Z,6.87
2022-11-30T15:36:49.851Z,7.03
2022-11-30T15:39:55.226Z,6.92
2022-11-30T15:43:00.333Z,6.93
2022-11-30T15:46:03.199Z,6.98
2022-11-30T15:49:07.969Z,6.97
2022-11-30T15:52:18.390Z,7.03
2022-11-30T15:55:42.579Z,7.00
2022-11-30T15:59:02.310Z,7.00
2022-11-30T16:02:14.093Z,6.99
2022-11-30T16:05:27.639Z,6.98
2022-11-30T16:08:30.503Z,6.97
2022-11-30T16:11:35.015Z,7.00
2022-11-30T16:14:38.961Z,6.97
2022-11-30T16:17:41.554Z,6.94
2022-11-30T16:20:45.225Z,6.94
2022-11-30T16:23:48.623Z,6.88
2022-11-30T16:26:52.193Z,6.94
2022-11-30T16:29:56.573Z,6.78
2022-11-30T16:32:59.265Z,6.87
2022-11-30T16:36:04.350Z,6.92
2022-11-30T16:39:09.161Z,6.94
2022-11-30T16:42:12.602Z,7.01
2022-11-30T16:45:19.425Z,7.05
2022-11-30T16:48:22.054Z,7.07
2022-11-30T16:51:27.214Z,6.98
2022-11-30T16:54:29.823Z,7.00
2022-11-30T16:57:32.437Z,7.02
2022-11-30T17:00:37.042Z,6.76
2022-11-30T17:03:40.359Z,6.93
2022-11-30T17:06:45.918Z,6.85
2022-11-30T17:09:52.515Z,6.83
2022-11-30T17:12:55.149Z,6.81
2022-11-30T17:15:59.156Z,6.92
2022-11-30T17:19:01.765Z,6.83
2022-11-30T17:22:04.611Z,6.93
2022-11-30T17:25:10.048Z,6.98
2022-11-30T17:28:12.680Z,7.04
2022-11-30T17:31:16.792Z,7.07
2022-11-30T17:34:19.480Z,7.07
2022-11-30T17:37:22.954Z,7.07
2022-11-30T17:40:25.581Z,7.04
2022-11-30T17:43:28.204Z,6.98
2022-11-30T17:46:32.255Z,6.97
2022-11-30T17:49:34.871Z,7.04
2022-11-30T17:52:37.474Z,7.05
2022-11-30T17:55:40.108Z,7.01
2022-11-30T17:58:44.562Z,6.96
2022-11-30T18:01:48.750Z,7.02
2022-11-30T18:04:52.487Z,7.04
2022-11-30T18:07:55.233Z,7.02
2022-11-30T18:10:57.865Z,7.04
2022-11-30T18:14:01.798Z,6.86
2022-11-30T18:17:05.819Z,6.93
2022-11-30T18:20:09.433Z,6.97
2022-11-30T18:23:12.066Z,6.97
2022-11-30T18:26:16.546Z,6.94
2022-11-30T18:29:19.195Z,6.95
2022-11-30T18:32:23.156Z,6.96
2022-11-30T18:35:25.786Z,6.95
2022-11-30T18:38:32.866Z,6.94
2022-11-30T18:41:39.772Z,6.97
2022-11-30T18:44:42.383Z,7.04
2022-11-30T18:47:46.370Z,6.94
2022-11-30T18:50:48.963Z,6.95
2022-11-30T18:53:57.460Z,6.96
2022-11-30T18:57:00.056Z,6.95
2022-11-30T19:00:02.907Z,7.02
2022-11-30T19:03:06.912Z,6.98
2022-11-30T19:06:10.942Z,6.95
2022-11-30T19:09:15.449Z,6.93
2022-11-30T19:12:18.115Z,6.92
2022-11-30T19:15:20.724Z,6.97
2022-11-30T19:18:24.697Z,6.96
2022-11-30T19:21:27.996Z,6.88
2022-11-30T19:24:30.638Z,6.90
2022-11-30T19:27:33.298Z,6.99
2022-11-30T19:30:35.928Z,6.96
2022-11-30T19:33:40.925Z,6.97
2022-11-30T19:36:43.548Z,6.99
2022-11-30T19:39:46.492Z,6.96
2022-11-30T19:42:49.098Z,6.98
2022-11-30T19:45:51.751Z,6.93
2022-11-30T19:49:00.546Z,6.95
2022-11-30T19:52:03.217Z,7.04
2022-11-30T19:55:06.679Z,6.97
2022-11-30T19:58:09.346Z,6.97
2022-11-30T20:01:13.229Z,6.94
2022-11-30T20:04:17.633Z,6.95
2022-11-30T20:07:20.265Z,6.98
2022-11-30T20:10:23.303Z,6.86
2022-11-30T20:13:27.269Z,6.93
2022-11-30T20:16:30.191Z,6.93
2022-11-30T20:19:34.239Z,6.90
2022-11-30T20:22:36.826Z,6.91
2022-11-30T20:25:39.490Z,6.93
2022-11-30T20:28:42.145Z,6.95
2022-11-30T20:31:46.692Z,6.90
2022-11-30T20:34:50.809Z,6.89
2022-11-30T20:37:53.943Z,6.87
2022-11-30T20:40:56.625Z,6.92
2022-11-30T20:43:59.264Z,6.92
2022-11-30T20:47:01.912Z,6.89
2022-11-30T20:50:07.377Z,6.93
2022-11-30T20:53:10.060Z,6.90
2022-11-30T20:56:13.488Z,6.93
2022-11-30T20:59:19.364Z,6.84
2022-11-30T21:02:22.024Z,6.88
2022-11-30T21:05:26.021Z,6.89
2022-11-30T21:08:28.604Z,6.92
2022-11-30T21:11:32.066Z,6.89
2022-11-30T21:14:34.680Z,6.82
2022-11-30T21:17:37.701Z,6.90
2022-11-30T21:20:41.681Z,6.91
2022-11-30T21:23:45.064Z,6.88
2022-11-30T21:26:47.668Z,6.88
2022-11-30T21:29:50.282Z,6.92
2022-11-30T21:32:52.895Z,6.84
2022-11-30T21:35:56.899Z,6.83
2022-11-30T21:39:05.583Z,6.85
2022-11-30T21:42:08.861Z,6.86
2022-11-30T21:45:12.336Z,6.90
2022-11-30T21:48:14.957Z,6.89
2022-11-30T21:51:21.454Z,6.95
2022-11-30T21:54:24.106Z,6.91
2022-11-30T21:57:26.716Z,6.89
2022-11-30T22:00:29.355Z,6.88
2022-11-30T22:03:32.247Z,6.88
2022-11-30T22:06:38.409Z,6.84
2022-11-30T22:09:41.036Z,6.83
2022-11-30T22:12:43.690Z,6.71
2022-11-30T22:15:46.360Z,6.81
2022-11-30T22:18:49.368Z,6.88
2022-11-30T22:21:53.288Z,6.80
2022-11-30T22:24:55.924Z,6.76
2022-11-30T22:27:58.516Z,6.80
2022-11-30T22:31:03.977Z,6.58
2022-11-30T22:34:07.387Z,6.71
2022-11-30T22:37:11.343Z,6.82
2022-11-30T22:40:14.974Z,6.80
2022-11-30T22:43:17.621Z,6.73
2022-11-30T22:46:22.690Z,6.80
2022-11-30T22:49:25.565Z,6.81
2022-11-30T22:52:54.940Z,6.73
2022-11-30T22:55:52.183Z,6.72
2022-11-30T22:58:57.081Z,6.83
2022-11-30T23:02:00.201Z,6.82
2022-11-30T23:05:02.802Z,6.80
2022-11-30T23:08:06.971Z,6.80
2022-11-30T23:11:14.240Z,6.82
2022-11-30T23:14:17.900Z,6.76
2022-11-30T23:17:21.106Z,6.74
2022-11-30T23:20:24.958Z,6.77
2022-11-30T23:23:30.792Z,6.77
2022-11-30T23:26:35.530Z,6.73
2022-11-30T23:29:40.281Z,6.67
2022-11-30T23:32:42.892Z,6.68
2022-11-30T23:35:45.609Z,6.78
2022-11-30T23:38:57.921Z,6.71
2022-11-30T23:42:00.604Z,6.73
2022-11-30T23:45:03.223Z,6.62
2022-11-30T23:48:06.214Z,6.76
2022-11-30T23:51:08.803Z,6.78
2022-11-30T23:54:13.111Z,6.73
2022-11-30T23:57:15.736Z,6.75
